Time,TemperatureF,DewpointF,PressureIn,WindDirection,WindDirectionDegrees,WindSpeedMPH,WindSpeedGustMPH,Humidity,HourlyPrecipIn,Conditions,Clouds,dailyrainin,SoftwareType,DateUTC
2013-04-10 00:00:00,42.8,32.2,31.21,SSW,193,0.0,0.0,66,0.00,,---,0.00,VWS V14.01,2013-04-10 07:00:00,
2013-04-10 00:05:00,42.9,32.0,31.21,SSW,205,0.0,0.0,65,0.00,,---,0.00,VWS V14.01,2013-04-10 07:05:00,
2013-04-10 00:10:00,43.1,32.2,31.23,SSW,196,0.0,0.0,65,0.00,,---,0.00,VWS V14.01,2013-04-10 07:10:00,
2013-04-10 00:15:00,43.2,31.9,31.23,SSW,204,0.0,0.0,64,0.00,,---,0.00,VWS V14.01,2013-04-10 07:15:00,
2013-04-10 00:21:00,43.3,32.0,31.23,SW,219,0.0,0.0,64,0.00,,---,0.00,VWS V14.01,2013-04-10 07:21:00,
2013-04-10 00:26:00,43.5,31.8,31.23,SSW,209,0.0,0.0,63,0.00,,---,0.00,VWS V14.01,2013-04-10 07:26:00,
2013-04-10 00:31:00,43.5,31.8,31.23,SSW,209,0.0,0.0,63,0.00,,---,0.00,VWS V14.01,2013-04-10 07:31:00,
2013-04-10 00:36:00,43.3,31.6,29.55,SW,225,0.0,0.0,63,0.00,,---,0.00,VWS V14.01,2013-04-10 07:36:00,
2013-04-10 00:41:00,43.2,31.9,31.23,SSW,201,0.0,0.0,64,0.00,,---,0.00,VWS V14.01,2013-04-10 07:41:00,
2013-04-10 00:46:00,43.2,31.9,31.23,SSW,213,0.0,0.0,64,0.00,,---,0.00,VWS V14.01,2013-04-10 07:46:00,
2013-04-10 00:51:00,43.1,31.8,31.23,SSW,194,0.0,0.0,64,0.00,,---,0.00,VWS V14.01,2013-04-10 07:51:00,
2013-04-10 00:57:00,42.9,31.6,31.23,SSW,195,0.0,0.0,64,0.00,,---,0.00,VWS V14.01,2013-04-10 07:57:00,
2013-04-10 01:02:00,42.9,31.6,31.23,SSW,211,0.0,0.0,64,0.00,,---,0.00,VWS V14.01,2013-04-10 08:02:00,
2013-04-10 01:07:00,42.8,31.5,31.23,SSW,211,0.0,0.0,64,0.00,,---,0.00,VWS V14.01,2013-04-10 08:07:00,
2013-04-10 01:12:00,42.6,31.3,29.55,SW,215,0.0,0.0,64,0.00,,---,0.00,VWS V14.01,2013-04-10 08:12:00,
2013-04-10 01:17:00,42.5,31.6,31.23,SSW,196,0.0,0.0,65,0.00,,---,0.00,VWS V14.01,2013-04-10 08:17:00,
2013-04-10 01:22:00,42.3,31.4,31.23,SSW,212,0.0,0.0,65,0.00,,---,0.00,VWS V14.01,2013-04-10 08:22:00,
2013-04-10 01:28:00,42.3,31.4,31.23,SSW,199,0.0,0.0,65,0.00,,---,0.00,VWS V14.01,2013-04-10 08:28:00,
2013-04-10 01:33:00,42.2,31.3,31.23,SSW,204,0.0,0.0,65,0.00,,---,0.00,VWS V14.01,2013-04-10 08:33:00,
2013-04-10 01:38:00,42.2,31.7,31.23,SSW,192,0.0,0.0,66,0.00,,---,0.00,VWS V14.01,2013-04-10 08:38:00,
2013-04-10 01:43:00,42.2,31.7,31.23,SW,225,0.0,0.0,66,0.00,,---,0.00,VWS V14.01,2013-04-10 08:43:00,
2013-04-10 01:48:00,42.3,31.4,31.23,SSW,194,0.0,0.0,65,0.00,,---,0.00,VWS V14.01,2013-04-10 08:48:00,
2013-04-10 01:53:00,42.5,31.6,31.23,SW,221,0.0,0.0,65,0.00,,---,0.00,VWS V14.01,2013-04-10 08:53:00,
2013-04-10 01:58:00,42.6,31.7,31.23,SSW,209,0.0,0.0,65,0.00,,---,0.00,VWS V14.01,2013-04-10 08:58:00,
2013-04-10 02:04:00,42.6,31.7,31.23,SSW,213,0.0,0.0,65,0.00,,---,0.00,VWS V14.01,2013-04-10 09:04:00,
2013-04-10 02:09:00,42.5,31.6,31.25,South,190,0.0,0.0,65,0.00,,---,0.00,VWS V14.01,2013-04-10 09:09:00,
2013-04-10 02:14:00,42.5,31.6,31.25,SSW,210,0.0,0.0,65,0.00,,---,0.00,VWS V14.01,2013-04-10 09:14:00,
2013-04-10 02:19:00,42.3,31.8,31.24,SW,219,0.0,0.0,66,0.00,,---,0.00,VWS V14.01,2013-04-10 09:19:00,
2013-04-10 02:24:00,42.2,31.7,31.24,SW,228,0.0,0.0,66,0.00,,---,0.00,VWS V14.01,2013-04-10 09:24:00,
2013-04-10 02:29:00,42.2,32.0,31.24,SW,218,0.0,0.0,67,0.00,,---,0.00,VWS V14.01,2013-04-10 09:29:00,
2013-04-10 02:34:00,42.1,32.3,31.24,SW,220,0.0,0.0,68,0.00,,---,0.00,VWS V14.01,2013-04-10 09:34:00,
2013-04-10 02:39:00,42.1,32.3,31.24,SW,227,0.0,0.0,68,0.00,,---,0.00,VWS V14.01,2013-04-10 09:39:00,
2013-04-10 02:44:00,41.9,32.1,31.24,SSW,208,0.0,0.0,68,0.00,,---,0.00,VWS V14.01,2013-04-10 09:44:00,
2013-04-10 02:49:00,42.1,32.3,31.24,South,186,0.0,0.0,68,0.00,,---,0.00,VWS V14.01,2013-04-10 09:49:00,
2013-04-10 02:54:00,42.2,32.4,31.24,SW,230,0.0,0.0,68,0.00,,---,0.00,VWS V14.01,2013-04-10 09:54:00,
2013-04-10 02:59:00,42.3,32.5,31.24,SSW,198,0.0,0.0,68,0.00,,---,0.00,VWS V14.01,2013-04-10 09:59:00,
2013-04-10 03:04:00,42.2,32.4,31.24,SSW,192,0.0,0.0,68,0.00,,---,0.00,VWS V14.01,2013-04-10 10:04:00,
2013-04-10 03:09:00,42.3,32.5,31.24,SW,217,0.0,0.0,68,0.00,,---,0.00,VWS V14.01,2013-04-10 10:09:00,
2013-04-10 03:14:00,42.3,32.5,31.24,SSW,207,0.0,0.0,68,0.00,,---,0.00,VWS V14.01,2013-04-10 10:14:00,
2013-04-10 03:19:00,42.3,32.9,31.25,SSW,209,0.0,0.0,69,0.00,,---,0.00,VWS V14.01,2013-04-10 10:19:00,
2013-04-10 03:25:00,42.3,32.9,31.25,SW,221,0.0,0.0,69,0.00,,---,0.00,VWS V14.01,2013-04-10 10:25:00,
2013-04-10 03:30:00,42.5,33.1,31.25,SSW,209,0.0,0.0,69,0.00,,---,0.00,VWS V14.01,2013-04-10 10:30:00,
2013-04-10 03:35:00,42.5,33.1,31.25,SSW,195,0.0,0.0,69,0.00,,---,0.00,VWS V14.01,2013-04-10 10:35:00,
2013-04-10 03:40:00,42.5,33.1,31.25,SSW,195,0.0,0.0,69,0.00,,---,0.00,VWS V14.01,2013-04-10 10:40:00,
2013-04-10 03:45:00,42.3,32.9,31.25,SW,215,0.0,0.0,69,0.00,,---,0.00,VWS V14.01,2013-04-10 10:45:00,
2013-04-10 03:50:00,42.3,33.2,31.25,SSW,205,0.0,0.0,70,0.00,,---,0.00,VWS V14.01,2013-04-10 10:50:00,
2013-04-10 03:55:00,42.3,33.2,31.25,SSW,207,0.0,0.0,70,0.00,,---,0.00,VWS V14.01,2013-04-10 10:55:00,
2013-04-10 04:00:00,42.3,33.2,31.25,SSW,208,0.0,0.0,70,0.00,,---,0.00,VWS V14.01,2013-04-10 11:00:00,
2013-04-10 04:05:00,42.3,33.6,31.24,SW,222,0.0,0.0,71,0.00,,---,0.00,VWS V14.01,2013-04-10 11:05:00,
2013-04-10 04:10:00,42.3,33.6,31.24,SSW,204,0.0,0.0,71,0.00,,---,0.00,VWS V14.01,2013-04-10 11:10:00,
2013-04-10 04:16:00,42.3,33.6,31.24,SSW,200,0.0,0.0,71,0.00,,---,0.00,VWS V14.01,2013-04-10 11:16:00,
2013-04-10 04:21:00,42.3,33.6,31.24,SSW,197,0.0,0.0,71,0.00,,---,0.00,VWS V14.01,2013-04-10 11:21:00,
2013-04-10 04:26:00,42.3,33.6,31.24,SW,217,0.0,0.0,71,0.00,,---,0.00,VWS V14.01,2013-04-10 11:26:00,
2013-04-10 04:32:00,42.5,33.8,31.24,SSW,193,0.0,0.0,71,0.00,,---,0.00,VWS V14.01,2013-04-10 11:32:00,
2013-04-10 04:37:00,42.6,33.9,31.24,SW,225,0.0,0.0,71,0.00,,---,0.00,VWS V14.01,2013-04-10 11:37:00,
2013-04-10 04:42:00,42.6,33.9,31.24,SW,219,0.0,0.0,71,0.00,,---,0.00,VWS V14.01,2013-04-10 11:42:00,
2013-04-10 04:47:00,42.5,33.8,31.24,SSW,205,0.0,0.0,71,0.00,,---,0.00,VWS V14.01,2013-04-10 11:47:00,
2013-04-10 04:52:00,42.5,34.1,31.24,SSW,204,0.0,0.0,72,0.00,,---,0.00,VWS V14.01,2013-04-10 11:52:00,
2013-04-10 04:58:00,42.6,34.2,31.24,SSW,213,0.0,0.0,72,0.00,,---,0.00,VWS V14.01,2013-04-10 11:58:00,
2013-04-10 05:03:00,42.8,34.4,31.24,SSW,208,0.0,0.0,72,0.00,,---,0.00,VWS V14.01,2013-04-10 12:03:00,
2013-04-10 05:08:00,42.8,34.4,31.23,SSW,197,0.0,0.0,72,0.00,,---,0.00,VWS V14.01,2013-04-10 12:08:00,
2013-04-10 05:13:00,42.8,34.4,31.23,SSW,193,0.0,0.0,72,0.00,,---,0.00,VWS V14.01,2013-04-10 12:13:00,
2013-04-10 05:18:00,42.6,34.2,31.23,SSW,202,0.0,0.0,72,0.00,,---,0.00,VWS V14.01,2013-04-10 12:18:00,
2013-04-10 05:23:00,42.5,34.5,31.23,SSW,204,0.0,0.0,73,0.00,,---,0.00,VWS V14.01,2013-04-10 12:23:00,
2013-04-10 05:28:00,42.6,34.9,31.23,SSW,208,0.0,0.0,74,0.00,,---,0.00,VWS V14.01,2013-04-10 12:28:00,
2013-04-10 05:33:00,42.8,35.1,31.23,SSW,207,0.0,0.0,74,0.00,,---,0.00,VWS V14.01,2013-04-10 12:33:00,
2013-04-10 05:38:00,42.9,35.2,31.23,SSW,213,0.0,0.0,74,0.00,,---,0.00,VWS V14.01,2013-04-10 12:38:00,
2013-04-10 05:43:00,43.1,35.4,31.23,SSW,202,0.0,0.0,74,0.00,,---,0.00,VWS V14.01,2013-04-10 12:43:00,
2013-04-10 05:49:00,43.1,35.4,31.23,SSW,195,0.0,0.0,74,0.00,,---,0.00,VWS V14.01,2013-04-10 12:49:00,
2013-04-10 05:54:00,43.3,35.6,31.24,SW,218,0.0,0.0,74,0.00,,---,0.00,VWS V14.01,2013-04-10 12:54:00,
2013-04-10 05:59:00,43.5,35.8,31.25,SW,229,0.0,0.0,74,0.00,,---,0.00,VWS V14.01,2013-04-10 12:59:00,
2013-04-10 06:04:00,43.6,35.9,31.25,SSW,201,0.0,0.0,74,0.00,,---,0.00,VWS V14.01,2013-04-10 13:04:00,
2013-04-10 06:09:00,43.9,36.5,31.24,SSW,192,0.0,0.0,75,0.00,,---,0.00,VWS V14.01,2013-04-10 13:09:00,
2013-04-10 06:14:00,44.3,36.9,31.24,SSW,210,0.0,0.0,75,0.00,,---,0.00,VWS V14.01,2013-04-10 13:14:00,
2013-04-10 06:19:00,44.8,37.0,31.24,South,184,0.0,0.0,74,0.00,,---,0.00,VWS V14.01,2013-04-10 13:19:00,
2013-04-10 06:24:00,45.5,37.4,31.24,SW,219,0.0,0.0,73,0.00,,---,0.00,VWS V14.01,2013-04-10 13:24:00,
2013-04-10 06:29:00,46.0,37.8,31.25,SW,225,0.0,0.0,73,0.00,,---,0.00,VWS V14.01,2013-04-10 13:29:00,
2013-04-10 06:34:00,46.5,38.0,31.25,SW,223,0.0,0.0,72,0.00,,---,0.00,VWS V14.01,2013-04-10 13:34:00,
2013-04-10 06:39:00,47.0,38.1,31.25,SSW,192,0.0,0.0,71,0.00,,---,0.00,VWS V14.01,2013-04-10 13:39:00,
2013-04-10 06:44:00,47.3,38.4,31.25,SSW,196,0.0,0.0,71,0.00,,---,0.00,VWS V14.01,2013-04-10 13:44:00,
2013-04-10 06:50:00,47.3,38.4,31.25,SW,217,0.0,0.0,71,0.00,,---,0.00,VWS V14.01,2013-04-10 13:50:00,
2013-04-10 06:55:00,47.1,38.2,31.25,SW,216,0.0,0.0,71,0.00,,---,0.00,VWS V14.01,2013-04-10 13:55:00,
2013-04-10 07:00:00,47.0,38.1,31.25,SSW,209,0.0,0.0,71,0.00,,---,0.00,VWS V14.01,2013-04-10 14:00:00,
2013-04-10 07:05:00,46.8,37.9,31.25,SSW,210,0.0,0.0,71,0.00,,---,0.00,VWS V14.01,2013-04-10 14:05:00,
2013-04-10 07:10:00,46.8,37.9,31.24,SSW,199,0.0,0.0,71,0.00,,---,0.00,VWS V14.01,2013-04-10 14:10:00,
2013-04-10 07:15:00,46.8,37.9,31.24,SW,225,0.0,0.0,71,0.00,,---,0.00,VWS V14.01,2013-04-10 14:15:00,
2013-04-10 07:20:00,46.7,37.8,31.24,SSW,196,0.0,0.0,71,0.00,,---,0.00,VWS V14.01,2013-04-10 14:20:00,
2013-04-10 07:25:00,46.7,38.2,31.24,SW,219,0.0,0.0,72,0.00,,---,0.00,VWS V14.01,2013-04-10 14:25:00,
2013-04-10 07:30:00,46.7,38.2,31.24,SSW,211,0.0,0.0,72,0.00,,---,0.00,VWS V14.01,2013-04-10 14:30:00,
2013-04-10 07:35:00,47.0,38.5,31.24,North,0,0.0,0.0,72,0.00,,---,0.00,VWS V14.01,2013-04-10 14:35:00,
2013-04-10 07:48:00,47.0,38.5,31.24,SSW,213,0.0,0.0,72,0.00,,---,0.00,VWS V14.01,2013-04-10 14:48:00,
2013-04-10 07:53:00,47.3,38.4,31.24,SW,230,0.0,0.0,71,0.00,,---,0.00,VWS V14.01,2013-04-10 14:53:00,
2013-04-10 07:58:00,47.3,38.4,31.24,SW,222,0.0,0.0,71,0.00,,---,0.00,VWS V14.01,2013-04-10 14:58:00,
2013-04-10 08:04:00,47.3,38.4,31.24,SSW,204,0.0,0.0,71,0.00,,---,0.00,VWS V14.01,2013-04-10 15:04:00,
2013-04-10 08:09:00,47.0,38.5,31.24,SSW,198,0.0,0.0,72,0.00,,---,0.00,VWS V14.01,2013-04-10 15:09:00,
2013-04-10 08:14:00,47.0,38.5,31.24,SW,217,0.0,0.0,72,0.00,,---,0.00,VWS V14.01,2013-04-10 15:14:00,
2013-04-10 08:19:00,47.0,38.5,31.24,SSW,209,0.0,0.0,72,0.00,,---,0.00,VWS V14.01,2013-04-10 15:19:00,
2013-04-10 08:24:00,47.1,38.5,31.24,SW,217,0.0,0.0,72,0.00,,---,0.00,VWS V14.01,2013-04-10 15:24:00,
2013-04-10 08:29:00,47.0,38.5,31.24,South,180,0.0,0.0,72,0.00,,---,0.00,VWS V14.01,2013-04-10 15:29:00,
2013-04-10 08:34:00,46.8,38.6,31.24,SSW,192,0.0,0.0,73,0.00,,---,0.00,VWS V14.01,2013-04-10 15:34:00,
2013-04-10 08:39:00,47.0,38.8,31.24,SSW,201,0.0,0.0,73,0.00,,---,0.00,VWS V14.01,2013-04-10 15:39:00,
2013-04-10 08:44:00,47.0,38.8,31.24,SSE,160,0.0,0.0,73,0.00,,---,0.00,VWS V14.01,2013-04-10 15:44:00,
2013-04-10 08:49:00,47.0,38.8,31.24,SSW,212,0.0,0.0,73,0.00,,---,0.00,VWS V14.01,2013-04-10 15:49:00,
2013-04-10 08:54:00,46.8,39.0,31.24,South,184,0.0,0.0,74,0.00,,---,0.00,VWS V14.01,2013-04-10 15:54:00,
2013-04-10 08:59:00,46.8,39.0,31.24,SW,225,0.0,0.0,74,0.00,,---,0.00,VWS V14.01,2013-04-10 15:59:00,
2013-04-10 09:04:00,47.4,38.8,31.24,SSW,193,0.0,0.0,72,0.00,,---,0.00,VWS V14.01,2013-04-10 16:04:00,
2013-04-10 09:09:00,47.6,38.7,31.24,SW,223,0.0,0.0,71,0.00,,---,0.00,VWS V14.01,2013-04-10 16:09:00,
2013-04-10 09:14:00,48.0,39.1,31.24,SW,232,0.0,0.0,71,0.00,,---,0.00,VWS V14.01,2013-04-10 16:14:00,
2013-04-10 09:19:00,48.3,39.0,31.24,West,265,0.0,0.0,70,0.00,,---,0.00,VWS V14.01,2013-04-10 16:19:00,
2013-04-10 09:24:00,48.3,39.0,31.24,SW,227,0.0,0.0,70,0.00,,---,0.00,VWS V14.01,2013-04-10 16:24:00,
2013-04-10 09:29:00,48.5,39.2,31.25,SW,225,0.0,0.0,70,0.00,,---,0.00,VWS V14.01,2013-04-10 16:29:00,
2013-04-10 09:34:00,48.8,39.1,31.25,WSW,252,0.0,0.0,69,0.00,,---,0.00,VWS V14.01,2013-04-10 16:34:00,
2013-04-10 09:39:00,48.9,39.2,31.25,SW,235,0.0,0.0,69,0.00,,---,0.00,VWS V14.01,2013-04-10 16:39:00,
2013-04-10 09:45:00,49.2,39.5,31.25,SW,223,0.0,0.0,69,0.00,,---,0.00,VWS V14.01,2013-04-10 16:45:00,
2013-04-10 09:50:00,49.4,40.0,31.25,SSW,195,0.0,0.0,70,0.00,,---,0.00,VWS V14.01,2013-04-10 16:50:00,
2013-04-10 09:55:00,49.5,39.8,31.25,SW,235,0.0,0.0,69,0.00,,---,0.00,VWS V14.01,2013-04-10 16:55:00,
2013-04-10 10:00:00,49.6,39.9,31.25,SSW,202,0.0,0.0,69,0.00,,---,0.00,VWS V14.01,2013-04-10 17:00:00,
2013-04-10 10:05:00,49.8,40.0,31.25,SSW,206,0.0,0.0,69,0.00,,---,0.00,VWS V14.01,2013-04-10 17:05:00,
2013-04-10 10:10:00,50.4,40.6,31.25,SSE,153,0.0,0.0,69,0.00,,---,0.00,VWS V14.01,2013-04-10 17:10:00,
2013-04-10 10:15:00,50.7,40.5,31.26,SE,141,0.0,0.0,68,0.00,,---,0.00,VWS V14.01,2013-04-10 17:15:00,
2013-04-10 10:20:00,51.0,40.4,31.26,South,187,0.0,0.0,67,0.00,,---,0.00,VWS V14.01,2013-04-10 17:20:00,
2013-04-10 10:25:00,51.1,40.5,31.26,SW,218,0.0,0.0,67,0.00,,---,0.00,VWS V14.01,2013-04-10 17:25:00,
2013-04-10 10:31:00,52.0,41.0,31.26,SW,221,0.0,0.0,66,0.00,,---,0.00,VWS V14.01,2013-04-10 17:31:00,
2013-04-10 10:36:00,52.6,41.2,31.27,South,186,0.0,0.0,65,0.00,,---,0.00,VWS V14.01,2013-04-10 17:36:00,
2013-04-10 10:41:00,53.1,40.8,31.27,SW,218,0.0,0.0,63,0.00,,---,0.00,VWS V14.01,2013-04-10 17:41:00,
2013-04-10 10:47:00,53.2,41.8,31.27,SW,226,0.0,0.0,65,0.00,,---,0.00,VWS V14.01,2013-04-10 17:47:00,
2013-04-10 10:52:00,53.1,40.8,31.27,SW,227,0.0,0.0,63,0.00,,---,0.00,VWS V14.01,2013-04-10 17:52:00,
2013-04-10 10:57:00,52.9,40.7,31.27,WSW,240,0.0,0.0,63,0.00,,---,0.00,VWS V14.01,2013-04-10 17:57:00,
2013-04-10 11:02:00,52.9,41.5,31.27,SW,229,0.0,0.0,65,0.00,,---,0.00,VWS V14.01,2013-04-10 18:02:00,
2013-04-10 11:07:00,53.3,41.8,31.26,SW,228,0.0,0.0,65,0.00,,---,0.00,VWS V14.01,2013-04-10 18:07:00,
2013-04-10 11:12:00,53.6,41.3,31.26,WSW,249,0.0,0.0,63,0.00,,---,0.00,VWS V14.01,2013-04-10 18:12:00,
2013-04-10 11:17:00,54.2,40.6,31.26,SW,223,0.0,0.0,60,0.00,,---,0.00,VWS V14.01,2013-04-10 18:17:00,
2013-04-10 11:22:00,53.8,40.7,31.26,SSW,198,0.0,0.0,61,0.00,,---,0.00,VWS V14.01,2013-04-10 18:22:00,
2013-04-10 11:27:00,54.1,41.0,31.26,WSW,237,0.0,0.0,61,0.00,,---,0.00,VWS V14.01,2013-04-10 18:27:00,
2013-04-10 11:33:00,53.9,41.2,31.26,SW,219,0.0,0.0,62,0.00,,---,0.00,VWS V14.01,2013-04-10 18:33:00,
2013-04-10 11:38:00,53.3,41.0,31.26,WSW,240,0.0,0.0,63,0.00,,---,0.00,VWS V14.01,2013-04-10 18:38:00,
2013-04-10 11:43:00,54.1,41.4,31.26,SSW,212,0.0,0.0,62,0.00,,---,0.00,VWS V14.01,2013-04-10 18:43:00,
2013-04-10 11:48:00,54.1,41.0,31.26,WSW,240,0.0,0.0,61,0.00,,---,0.00,VWS V14.01,2013-04-10 18:48:00,
2013-04-10 11:53:00,54.8,41.6,31.27,SW,219,0.0,0.0,61,0.00,,---,0.00,VWS V14.01,2013-04-10 18:53:00,
2013-04-10 11:58:00,55.3,41.2,31.27,South,185,0.0,0.0,59,0.00,,---,0.00,VWS V14.01,2013-04-10 18:58:00,
2013-04-10 12:03:00,55.9,41.8,31.27,West,259,0.0,0.0,59,0.00,,---,0.00,VWS V14.01,2013-04-10 19:03:00,
2013-04-10 12:08:00,56.2,41.2,31.27,WSW,242,0.0,0.0,57,0.00,,---,0.00,VWS V14.01,2013-04-10 19:08:00,
2013-04-10 12:13:00,56.2,41.2,31.27,SW,233,0.0,0.0,57,0.00,,---,0.00,VWS V14.01,2013-04-10 19:13:00,
2013-04-10 12:19:00,55.6,41.5,31.27,SSW,201,0.0,0.0,59,0.00,,---,0.00,VWS V14.01,2013-04-10 19:19:00,
2013-04-10 12:24:00,55.7,40.7,31.27,SSW,193,0.0,0.0,57,0.00,,---,0.00,VWS V14.01,2013-04-10 19:24:00,
2013-04-10 12:29:00,54.7,42.4,31.27,SW,232,0.0,0.0,63,0.00,,---,0.00,VWS V14.01,2013-04-10 19:29:00,
2013-04-10 12:34:00,54.7,41.1,31.27,South,182,0.0,0.0,60,0.00,,---,0.00,VWS V14.01,2013-04-10 19:34:00,
2013-04-10 12:39:00,55.0,42.7,31.27,SSW,204,0.0,0.0,63,0.00,,---,0.00,VWS V14.01,2013-04-10 19:39:00,
2013-04-10 12:44:00,55.7,40.7,31.27,WSW,244,0.0,0.0,57,0.00,,---,0.00,VWS V14.01,2013-04-10 19:44:00,
2013-04-10 12:49:00,55.4,40.0,31.27,SSW,213,0.0,0.0,56,0.00,,---,0.00,VWS V14.01,2013-04-10 19:49:00,
2013-04-10 12:54:00,56.2,40.7,31.27,WSW,239,0.0,0.0,56,0.00,,---,0.00,VWS V14.01,2013-04-10 19:54:00,
2013-04-10 12:59:00,56.9,39.5,31.28,West,261,0.0,0.0,52,0.00,,---,0.00,VWS V14.01,2013-04-10 19:59:00,
2013-04-10 13:04:00,56.6,39.7,31.28,WSW,238,0.0,0.0,53,0.00,,---,0.00,VWS V14.01,2013-04-10 20:04:00,
2013-04-10 13:09:00,57.0,39.1,27.92,NW,305,0.0,0.0,51,0.00,,---,0.00,VWS V14.01,2013-04-10 20:09:00,
2013-04-10 13:14:00,57.8,37.2,29.60,WSW,256,0.0,0.0,46,0.00,,---,0.00,VWS V14.01,2013-04-10 20:14:00,
2013-04-10 13:19:00,57.6,37.5,29.60,WSW,253,0.0,0.0,47,0.00,,---,0.00,VWS V14.01,2013-04-10 20:19:00,
2013-04-10 13:25:00,58.1,36.9,29.60,WSW,258,0.0,0.0,45,0.00,,---,0.00,VWS V14.01,2013-04-10 20:25:00,
2013-04-10 13:30:00,57.3,37.3,31.83,West,268,0.0,0.0,47,0.00,,---,0.00,VWS V14.01,2013-04-10 20:30:00,
2013-04-10 13:35:00,57.0,35.9,30.16,WSW,248,0.0,0.0,45,0.00,,---,0.00,VWS V14.01,2013-04-10 20:35:00,
2013-04-10 13:40:00,57.8,37.2,31.84,WSW,254,0.0,0.0,46,0.00,,---,0.00,VWS V14.01,2013-04-10 20:40:00,
2013-04-10 13:45:00,58.0,36.8,31.84,SW,236,0.0,0.0,45,0.00,,---,0.00,VWS V14.01,2013-04-10 20:45:00,
2013-04-10 13:50:00,56.6,37.2,31.84,SSW,211,0.0,0.0,48,0.00,,---,0.00,VWS V14.01,2013-04-10 20:50:00,
2013-04-10 13:55:00,56.6,36.1,31.84,West,265,0.0,0.0,46,0.00,,---,0.00,VWS V14.01,2013-04-10 20:55:00,
2013-04-10 14:01:00,57.3,37.3,31.84,West,267,0.0,0.0,47,0.00,,---,0.00,VWS V14.01,2013-04-10 21:01:00,
2013-04-10 14:06:00,58.3,35.9,31.84,West,273,0.0,0.0,43,0.00,,---,0.00,VWS V14.01,2013-04-10 21:06:00,
2013-04-10 14:11:00,57.0,35.9,29.58,WSW,255,0.0,0.0,45,0.00,,---,0.00,VWS V14.01,2013-04-10 21:11:00,
2013-04-10 14:16:00,56.9,35.8,29.59,SW,226,0.0,0.0,45,0.00,,---,0.00,VWS V14.01,2013-04-10 21:16:00,
2013-04-10 14:21:00,56.9,35.2,31.26,SW,229,0.0,0.0,44,0.00,,---,0.00,VWS V14.01,2013-04-10 21:21:00,
2013-04-10 14:26:00,56.7,36.2,29.59,SW,229,0.0,0.0,46,0.00,,---,0.00,VWS V14.01,2013-04-10 21:26:00,
2013-04-10 14:31:00,57.2,36.1,31.26,West,275,0.0,0.0,45,0.00,,---,0.00,VWS V14.01,2013-04-10 21:31:00,
2013-04-10 14:36:00,57.0,35.3,31.26,SW,223,0.0,0.0,44,0.00,,---,0.00,VWS V14.01,2013-04-10 21:36:00,
2013-04-10 14:42:00,55.9,35.4,31.26,West,265,0.0,0.0,46,0.00,,---,0.00,VWS V14.01,2013-04-10 21:42:00,
2013-04-10 14:47:00,55.4,32.1,31.26,SW,223,0.0,0.0,41,0.00,,---,0.00,VWS V14.01,2013-04-10 21:47:00,
2013-04-10 14:52:00,54.5,33.0,31.25,SW,220,0.0,0.0,44,0.00,,---,0.00,VWS V14.01,2013-04-10 21:52:00,
2013-04-10 14:58:00,54.8,34.4,31.25,SW,217,0.0,0.0,46,0.00,,---,0.00,VWS V14.01,2013-04-10 21:58:00,
2013-04-10 15:03:00,55.1,33.0,31.25,WNW,292,0.0,0.0,43,0.00,,---,0.00,VWS V14.01,2013-04-10 22:03:00,
2013-04-10 15:08:00,54.5,28.8,29.58,WNW,302,0.0,0.0,37,0.00,,---,0.00,VWS V14.01,2013-04-10 22:08:00,
2013-04-10 15:13:00,53.9,31.4,31.25,North,349,0.0,0.0,42,0.00,,---,0.00,VWS V14.01,2013-04-10 22:13:00,
2013-04-10 15:18:00,52.3,31.0,31.25,North,360,0.0,0.0,44,0.00,,---,0.00,VWS V14.01,2013-04-10 22:18:00,
2013-04-10 15:23:00,51.3,30.7,31.25,NNE,13,0.0,0.0,45,0.00,,---,0.00,VWS V14.01,2013-04-10 22:23:00,
2013-04-10 15:28:00,51.6,29.9,31.24,NNW,329,0.0,0.0,43,0.00,,---,0.00,VWS V14.01,2013-04-10 22:28:00,
2013-04-10 15:33:00,51.6,29.3,31.24,NW,309,0.0,0.0,42,0.00,,---,0.00,VWS V14.01,2013-04-10 22:33:00,
2013-04-10 15:38:00,51.4,29.7,20.77,North,350,0.0,0.0,43,0.00,,---,0.00,VWS V14.01,2013-04-10 22:38:00,
2013-04-10 15:43:00,50.5,29.4,29.89,NNW,338,0.0,0.0,44,0.00,,---,0.00,VWS V14.01,2013-04-10 22:43:00,
2013-04-10 15:48:00,50.5,30.5,31.23,WNW,296,0.0,0.0,46,0.00,,---,0.00,VWS V14.01,2013-04-10 22:48:00,
2013-04-10 15:53:00,51.0,30.4,31.23,NNW,337,0.0,0.0,45,0.00,,---,0.00,VWS V14.01,2013-04-10 22:53:00,
2013-04-10 15:59:00,50.1,30.7,31.23,NNW,342,0.0,0.0,47,0.00,,---,0.00,VWS V14.01,2013-04-10 22:59:00,
2013-04-10 16:04:00,49.2,30.4,31.22,NNW,336,0.0,0.0,48,0.00,,---,0.00,VWS V14.01,2013-04-10 23:04:00,
2013-04-10 16:09:00,49.2,29.9,20.77,NNW,332,0.0,0.0,47,0.00,,---,0.00,VWS V14.01,2013-04-10 23:09:00,
2013-04-10 16:14:00,48.6,29.8,20.77,North,355,0.0,0.0,48,0.00,,---,0.00,VWS V14.01,2013-04-10 23:14:00,
2013-04-10 16:19:00,48.8,30.5,31.23,NW,324,0.0,0.0,49,0.00,,---,0.00,VWS V14.01,2013-04-10 23:19:00,
2013-04-10 16:24:00,49.5,30.6,31.23,NW,322,0.0,0.0,48,0.00,,---,0.00,VWS V14.01,2013-04-10 23:24:00,
2013-04-10 16:29:00,49.8,30.4,31.23,North,360,0.0,0.0,47,0.00,,---,0.00,VWS V14.01,2013-04-10 23:29:00,
2013-04-10 16:34:00,49.9,29.4,31.23,NW,317,0.0,0.0,45,0.00,,---,0.00,VWS V14.01,2013-04-10 23:34:00,
2013-04-10 16:39:00,49.6,29.7,31.23,WNW,296,0.0,0.0,46,0.00,,---,0.00,VWS V14.01,2013-04-10 23:39:00,
2013-04-10 16:44:00,49.6,28.6,31.23,NW,325,0.0,0.0,44,0.00,,---,0.00,VWS V14.01,2013-04-10 23:44:00,
2013-04-10 16:49:00,49.5,29.1,31.23,NW,317,0.0,0.0,45,0.00,,---,0.00,VWS V14.01,2013-04-10 23:49:00,
2013-04-10 16:54:00,49.4,28.4,31.23,NW,317,0.0,0.0,44,0.00,,---,0.00,VWS V14.01,2013-04-10 23:54:00,
2013-04-10 16:59:00,49.5,28.5,29.89,WNW,294,0.0,0.0,44,0.00,,---,0.00,VWS V14.01,2013-04-10 23:59:00,
2013-04-10 17:04:00,49.1,28.1,20.77,NW,315,0.0,0.0,44,0.00,,---,0.00,VWS V14.01,2013-04-11 00:04:00,
2013-04-10 17:09:00,48.8,28.4,31.23,NW,304,0.0,0.0,45,0.00,,---,0.00,VWS V14.01,2013-04-11 00:09:00,
2013-04-10 17:14:00,48.2,28.9,20.77,NW,319,0.0,0.0,47,0.00,,---,0.00,VWS V14.01,2013-04-11 00:14:00,
2013-04-10 17:20:00,47.9,28.7,31.23,NNW,345,0.0,0.0,47,0.00,,---,0.00,VWS V14.01,2013-04-11 00:20:00,
2013-04-10 17:25:00,48.2,27.9,31.23,NNW,340,0.0,0.0,45,0.00,,---,0.00,VWS V14.01,2013-04-11 00:25:00,
2013-04-10 17:30:00,48.8,26.2,31.23,NW,325,0.0,0.0,41,0.00,,---,0.00,VWS V14.01,2013-04-11 00:30:00,
2013-04-10 17:35:00,49.5,26.2,31.23,West,277,0.0,0.0,40,0.00,,---,0.00,VWS V14.01,2013-04-11 00:35:00,
2013-04-10 17:40:00,50.8,28.0,27.88,SW,230,0.0,0.0,41,0.00,,---,0.00,VWS V14.01,2013-04-11 00:40:00,
2013-04-10 17:45:00,50.8,29.1,27.88,WSW,248,0.0,0.0,43,0.00,,---,0.00,VWS V14.01,2013-04-11 00:45:00,
2013-04-10 17:50:00,50.4,27.0,27.88,WSW,254,0.0,0.0,40,0.00,,---,0.00,VWS V14.01,2013-04-11 00:50:00,
2013-04-10 17:55:00,49.5,26.8,27.88,WNW,295,0.0,0.0,41,0.00,,---,0.00,VWS V14.01,2013-04-11 00:55:00,
2013-04-10 18:00:00,48.9,27.4,27.88,NW,313,0.0,0.0,43,0.00,,---,0.00,VWS V14.01,2013-04-11 01:00:00,
2013-04-10 18:05:00,48.5,28.1,27.88,WNW,295,0.0,0.0,45,0.00,,---,0.00,VWS V14.01,2013-04-11 01:05:00,
2013-04-10 18:10:00,47.7,29.0,27.88,NNW,339,0.0,0.0,48,0.00,,---,0.00,VWS V14.01,2013-04-11 01:10:00,
2013-04-10 18:15:00,46.8,29.6,27.88,NNW,336,0.0,0.0,51,0.00,,---,0.00,VWS V14.01,2013-04-11 01:15:00,
2013-04-10 18:20:00,46.2,29.6,27.88,NNW,331,0.0,0.0,52,0.00,,---,0.00,VWS V14.01,2013-04-11 01:20:00,
2013-04-10 18:25:00,45.8,30.1,27.88,NW,312,0.0,0.0,54,0.00,,---,0.00,VWS V14.01,2013-04-11 01:25:00,
2013-04-10 18:31:00,45.5,29.4,27.88,WNW,300,0.0,0.0,53,0.00,,---,0.00,VWS V14.01,2013-04-11 01:31:00,
2013-04-10 18:36:00,45.1,30.4,27.88,NNW,344,0.0,0.0,56,0.00,,---,0.00,VWS V14.01,2013-04-11 01:36:00,
2013-04-10 18:41:00,44.6,30.3,27.88,NNW,344,0.0,0.0,57,0.00,,---,0.00,VWS V14.01,2013-04-11 01:41:00,
2013-04-10 18:46:00,44.3,30.9,27.88,NNW,344,0.0,0.0,59,0.00,,---,0.00,VWS V14.01,2013-04-11 01:46:00,
2013-04-10 18:52:00,44.2,31.2,19.10,North,355,0.0,0.0,60,0.00,,---,0.00,VWS V14.01,2013-04-11 01:52:00,
2013-04-10 18:57:00,43.9,31.3,19.10,North,355,0.0,0.0,61,0.00,,---,0.00,VWS V14.01,2013-04-11 01:57:00,
2013-04-10 19:02:00,43.6,31.5,31.22,NW,321,0.0,0.0,62,0.00,,---,0.00,VWS V14.01,2013-04-11 02:02:00,
2013-04-10 19:07:00,43.6,31.5,31.22,NW,320,0.0,0.0,62,0.00,,---,0.00,VWS V14.01,2013-04-11 02:07:00,
2013-04-10 19:12:00,43.5,31.8,31.22,NW,315,0.0,0.0,63,0.00,,---,0.00,VWS V14.01,2013-04-11 02:12:00,
2013-04-10 19:17:00,43.2,31.5,20.77,NW,321,0.0,0.0,63,0.00,,---,0.00,VWS V14.01,2013-04-11 02:17:00,
2013-04-10 19:22:00,42.9,31.6,31.22,NW,318,0.0,0.0,64,0.00,,---,0.00,VWS V14.01,2013-04-11 02:22:00,
2013-04-10 19:27:00,42.6,31.3,31.22,NW,321,0.0,0.0,64,0.00,,---,0.00,VWS V14.01,2013-04-11 02:27:00,
2013-04-10 19:32:00,42.3,31.0,31.21,North,360,0.0,0.0,64,0.00,,---,0.00,VWS V14.01,2013-04-11 02:32:00,
2013-04-10 19:38:00,42.1,31.2,31.21,NNW,330,0.0,0.0,65,0.00,,---,0.00,VWS V14.01,2013-04-11 02:38:00,
2013-04-10 19:43:00,41.8,30.9,31.21,NNW,329,0.0,0.0,65,0.00,,---,0.00,VWS V14.01,2013-04-11 02:43:00,
2013-04-10 19:48:00,41.5,30.6,31.21,NNW,331,0.0,0.0,65,0.00,,---,0.00,VWS V14.01,2013-04-11 02:48:00,
2013-04-10 19:53:00,41.1,30.2,31.21,NW,321,0.0,0.0,65,0.00,,---,0.00,VWS V14.01,2013-04-11 02:53:00,
2013-04-10 19:58:00,40.9,30.1,31.21,NW,317,0.0,0.0,65,0.00,,---,0.00,VWS V14.01,2013-04-11 02:58:00,
2013-04-10 20:03:00,40.9,30.1,31.21,NW,314,0.0,0.0,65,0.00,,---,0.00,VWS V14.01,2013-04-11 03:03:00,
2013-04-10 20:08:00,40.6,29.4,31.21,NNW,347,0.0,0.0,64,0.00,,---,0.00,VWS V14.01,2013-04-11 03:08:00,
2013-04-10 20:13:00,40.6,29.4,31.21,NNW,345,0.0,0.0,64,0.00,,---,0.00,VWS V14.01,2013-04-11 03:13:00,
2013-04-10 20:18:00,40.3,29.1,31.21,North,9,0.0,0.0,64,0.00,,---,0.00,VWS V14.01,2013-04-11 03:18:00,
2013-04-10 20:23:00,40.2,29.4,31.20,North,360,0.0,0.0,65,0.00,,---,0.00,VWS V14.01,2013-04-11 03:23:00,
2013-04-10 20:29:00,40.2,29.4,31.20,NNW,348,0.0,0.0,65,0.00,,---,0.00,VWS V14.01,2013-04-11 03:29:00,
2013-04-10 20:34:00,40.3,29.5,31.20,North,350,0.0,0.0,65,0.00,,---,0.00,VWS V14.01,2013-04-11 03:34:00,
2013-04-10 20:39:00,40.2,29.4,31.20,NNE,20,0.0,0.0,65,0.00,,---,0.00,VWS V14.01,2013-04-11 03:39:00,
2013-04-10 20:44:00,40.1,29.3,31.20,North,350,0.0,0.0,65,0.00,,---,0.00,VWS V14.01,2013-04-11 03:44:00,
2013-04-10 20:49:00,39.8,29.4,31.20,North,350,0.0,0.0,66,0.00,,---,0.00,VWS V14.01,2013-04-11 03:49:00,
2013-04-10 20:54:00,39.3,29.3,31.20,North,350,0.0,0.0,67,0.00,,---,0.00,VWS V14.01,2013-04-11 03:54:00,
2013-04-10 20:59:00,39.3,29.6,31.20,East,88,0.0,0.0,68,0.00,,---,0.00,VWS V14.01,2013-04-11 03:59:00,
2013-04-10 21:00:00,39.3,29.6,31.20,East,88,0.0,0.0,68,0.00,,---,0.00,VWS V14.01,2013-04-11 04:00:00,
2013-04-10 21:01:00,39.3,29.6,31.20,ESE,109,0.0,0.0,68,0.00,,---,0.00,VWS V14.01,2013-04-11 04:01:00,
2013-04-10 21:02:00,39.3,29.6,31.20,ESE,113,0.0,0.0,68,0.00,,---,0.00,VWS V14.01,2013-04-11 04:02:00,
2013-04-10 21:07:00,39.3,30.0,31.21,SE,124,0.0,0.0,69,0.00,,---,0.00,VWS V14.01,2013-04-11 04:07:00,
2013-04-10 21:12:00,39.2,29.9,31.21,ESE,109,0.0,0.0,69,0.00,,---,0.00,VWS V14.01,2013-04-11 04:12:00,
2013-04-10 21:17:00,39.2,30.2,31.21,ESE,110,0.0,0.0,70,0.00,,---,0.00,VWS V14.01,2013-04-11 04:17:00,
2013-04-10 21:22:00,39.1,30.5,31.21,South,186,0.0,0.0,71,0.00,,---,0.00,VWS V14.01,2013-04-11 04:22:00,
2013-04-10 21:27:00,39.3,30.4,31.21,NE,43,0.0,0.0,70,0.00,,---,0.00,VWS V14.01,2013-04-11 04:27:00,
2013-04-10 21:32:00,39.5,29.8,31.22,WNW,293,0.0,0.0,68,0.00,,---,0.00,VWS V14.01,2013-04-11 04:32:00,
2013-04-10 21:37:00,39.5,29.8,31.22,WNW,290,0.0,0.0,68,0.00,,---,0.00,VWS V14.01,2013-04-11 04:37:00,
2013-04-10 21:42:00,39.5,29.1,31.22,NW,324,0.0,0.0,66,0.00,,---,0.00,VWS V14.01,2013-04-11 04:42:00,
2013-04-10 21:47:00,39.6,29.2,31.22,NW,324,0.0,0.0,66,0.00,,---,0.00,VWS V14.01,2013-04-11 04:47:00,
2013-04-10 21:52:00,39.3,29.3,31.21,NW,323,0.0,0.0,67,0.00,,---,0.00,VWS V14.01,2013-04-11 04:52:00,
2013-04-10 21:58:00,39.3,28.9,31.21,NNW,330,0.0,0.0,66,0.00,,---,0.00,VWS V14.01,2013-04-11 04:58:00,
2013-04-10 22:03:00,39.2,28.8,31.21,NNW,327,0.0,0.0,66,0.00,,---,0.00,VWS V14.01,2013-04-11 05:03:00,
2013-04-10 22:08:00,39.1,28.7,31.23,NW,317,0.0,0.0,66,0.00,,---,0.00,VWS V14.01,2013-04-11 05:08:00,
2013-04-10 22:13:00,38.3,28.7,31.22,NW,313,0.0,0.0,68,0.00,,---,0.00,VWS V14.01,2013-04-11 05:13:00,
2013-04-10 22:18:00,38.0,28.8,31.22,NW,313,0.0,0.0,69,0.00,,---,0.00,VWS V14.01,2013-04-11 05:18:00,
2013-04-10 22:23:00,37.8,28.9,31.22,SSE,156,0.0,0.0,70,0.00,,---,0.00,VWS V14.01,2013-04-11 05:23:00,
2013-04-10 22:28:00,37.6,29.1,31.22,SSE,165,0.0,0.0,71,0.00,,---,0.00,VWS V14.01,2013-04-11 05:28:00,
2013-04-10 22:33:00,37.3,28.8,31.22,SW,220,0.0,0.0,71,0.00,,---,0.00,VWS V14.01,2013-04-11 05:33:00,
2013-04-10 22:38:00,37.2,29.0,31.22,SW,217,0.0,0.0,72,0.00,,---,0.00,VWS V14.01,2013-04-11 05:38:00,
2013-04-10 22:43:00,37.3,29.1,31.22,SW,217,0.0,0.0,72,0.00,,---,0.00,VWS V14.01,2013-04-11 05:43:00,
2013-04-10 22:48:00,37.3,29.5,31.22,SW,217,0.0,0.0,73,0.00,,---,0.00,VWS V14.01,2013-04-11 05:48:00,
2013-04-10 22:53:00,37.3,29.1,31.22,SW,216,0.0,0.0,72,0.00,,---,0.00,VWS V14.01,2013-04-11 05:53:00,
2013-04-10 22:58:00,37.3,29.5,31.22,SW,217,0.0,0.0,73,0.00,,---,0.00,VWS V14.01,2013-04-11 05:58:00,
2013-04-10 23:03:00,37.2,29.4,31.22,South,177,0.0,0.0,73,0.00,,---,0.00,VWS V14.01,2013-04-11 06:03:00,
2013-04-10 23:08:00,37.0,29.5,31.23,South,178,0.0,0.0,74,0.00,,---,0.00,VWS V14.01,2013-04-11 06:08:00,
2013-04-10 23:13:00,36.9,29.4,31.23,South,186,0.0,0.0,74,0.00,,---,0.00,VWS V14.01,2013-04-11 06:13:00,
2013-04-10 23:18:00,36.8,29.3,31.23,SSW,212,0.0,0.0,74,0.00,,---,0.00,VWS V14.01,2013-04-11 06:18:00,
2013-04-10 23:24:00,36.8,29.3,31.23,SSW,210,0.0,0.0,74,0.00,,---,0.00,VWS V14.01,2013-04-11 06:24:00,
2013-04-10 23:29:00,36.6,29.1,31.23,SW,225,0.0,0.0,74,0.00,,---,0.00,VWS V14.01,2013-04-11 06:29:00,
2013-04-10 23:34:00,36.5,29.0,31.23,SW,223,0.0,0.0,74,0.00,,---,0.00,VWS V14.01,2013-04-11 06:34:00,
2013-04-10 23:39:00,36.5,29.0,31.23,SW,225,0.0,0.0,74,0.00,,---,0.00,VWS V14.01,2013-04-11 06:39:00,
2013-04-10 23:44:00,36.8,29.3,31.23,SW,231,0.0,0.0,74,0.00,,---,0.00,VWS V14.01,2013-04-11 06:44:00,
2013-04-10 23:49:00,36.9,29.1,31.23,WSW,245,0.0,0.0,73,0.00,,---,0.00,VWS V14.01,2013-04-11 06:49:00,
2013-04-10 23:54:00,37.0,28.8,31.23,WSW,256,0.0,0.0,72,0.00,,---,0.00,VWS V14.01,2013-04-11 06:54:00,
2013-04-10 23:59:00,37.0,28.8,31.23,West,271,0.0,0.0,72,0.00,,---,0.00,VWS V14.01,2013-04-11 06:59:00,